Terminal Aerodrome Forecast
Issued by NWS

Home | Current Version | Previous Version | Text Only | Print | Product List | Glossary On
Versions: 1 2 3 4 5 6 7 8 9 10 11
888
FTUS43 KLSX 210910 AAA
TAFSUS
TAF AMD
KSUS 210910Z 2109/2206 36005KT P6SM OVC200
     FM211100 01005KT P6SM VCSH OVC120
     FM211600 01006KT P6SM OVC200
     FM212200 05007KT P6SM VCSH OVC060
     FM220400 06009KT P6SM -RA OVC045=

USA.gov is the U.S. government's official web portal to all federal, state and local government web resources and services.